sensor_id;sensor_type;location;lat;lon;timestamp;temperature;humidity
68912;SHT31;55953;51.650;-0.522;2023-06-26T00:00:36;16.24;68.79
68912;SHT31;55953;51.650;-0.522;2023-06-26T00:03:25;16.21;69.00
68912;SHT31;55953;51.650;-0.522;2023-06-26T00:05:53;16.18;69.00
68912;SHT31;55953;51.650;-0.522;2023-06-26T00:08:21;16.18;69.35
68912;SHT31;55953;51.650;-0.522;2023-06-26T00:10:49;16.17;69.16
68912;SHT31;55953;51.650;-0.522;2023-06-26T00:13:19;16.15;69.36
68912;SHT31;55953;51.650;-0.522;2023-06-26T00:15:47;16.14;69.26
68912;SHT31;55953;51.650;-0.522;2023-06-26T00:18:15;16.14;69.16
68912;SHT31;55953;51.650;-0.522;2023-06-26T00:20:43;16.12;69.65
68912;SHT31;55953;51.650;-0.522;2023-06-26T00:23:12;16.10;69.60
68912;SHT31;55953;51.650;-0.522;2023-06-26T00:25:40;16.09;69.71
68912;SHT31;55953;51.650;-0.522;2023-06-26T00:28:08;16.09;69.63
68912;SHT31;55953;51.650;-0.522;2023-06-26T00:30:38;16.06;69.88
68912;SHT31;55953;51.650;-0.522;2023-06-26T00:33:06;16.04;69.74
68912;SHT31;55953;51.650;-0.522;2023-06-26T00:35:34;16.00;70.06
68912;SHT31;55953;51.650;-0.522;2023-06-26T00:38:04;15.97;70.30
68912;SHT31;55953;51.650;-0.522;2023-06-26T00:40:31;15.97;70.20
68912;SHT31;55953;51.650;-0.522;2023-06-26T00:42:59;15.94;70.34
68912;SHT31;55953;51.650;-0.522;2023-06-26T00:45:27;15.92;70.56
68912;SHT31;55953;51.650;-0.522;2023-06-26T00:48:08;15.89;70.66
68912;SHT31;55953;51.650;-0.522;2023-06-26T00:50:40;15.87;70.90
68912;SHT31;55953;51.650;-0.522;2023-06-26T00:53:09;15.83;70.77
68912;SHT31;55953;51.650;-0.522;2023-06-26T00:55:38;15.80;71.03
68912;SHT31;55953;51.650;-0.522;2023-06-26T00:58:06;15.78;71.17
68912;SHT31;55953;51.650;-0.522;2023-06-26T01:00:34;15.75;71.24
68912;SHT31;55953;51.650;-0.522;2023-06-26T01:03:02;15.74;71.39
68912;SHT31;55953;51.650;-0.522;2023-06-26T01:05:31;15.72;71.23
68912;SHT31;55953;51.650;-0.522;2023-06-26T01:07:59;15.71;71.24
68912;SHT31;55953;51.650;-0.522;2023-06-26T01:10:27;15.69;71.48
68912;SHT31;55953;51.650;-0.522;2023-06-26T01:12:56;15.67;71.39
68912;SHT31;55953;51.650;-0.522;2023-06-26T01:15:25;15.64;71.53
68912;SHT31;55953;51.650;-0.522;2023-06-26T01:17:53;15.63;71.75
68912;SHT31;55953;51.650;-0.522;2023-06-26T01:20:21;15.61;71.71
68912;SHT31;55953;51.650;-0.522;2023-06-26T01:28:42;15.55;71.89
68912;SHT31;55953;51.650;-0.522;2023-06-26T01:31:12;15.51;72.05
68912;SHT31;55953;51.650;-0.522;2023-06-26T01:33:42;15.48;72.20
68912;SHT31;55953;51.650;-0.522;2023-06-26T01:36:11;15.45;72.43
68912;SHT31;55953;51.650;-0.522;2023-06-26T01:38:39;15.41;72.59
68912;SHT31;55953;51.650;-0.522;2023-06-26T01:41:07;15.40;72.62
68912;SHT31;55953;51.650;-0.522;2023-06-26T01:46:39;15.35;72.91
68912;SHT31;55953;51.650;-0.522;2023-06-26T01:55:04;15.24;73.65
68912;SHT31;55953;51.650;-0.522;2023-06-26T01:57:43;15.22;73.36
68912;SHT31;55953;51.650;-0.522;2023-06-26T02:00:18;15.19;73.40
68912;SHT31;55953;51.650;-0.522;2023-06-26T02:02:49;15.20;73.32
68912;SHT31;55953;51.650;-0.522;2023-06-26T02:05:17;15.16;73.51
68912;SHT31;55953;51.650;-0.522;2023-06-26T02:07:45;15.13;73.66
68912;SHT31;55953;51.650;-0.522;2023-06-26T02:10:12;15.12;73.81
68912;SHT31;55953;51.650;-0.522;2023-06-26T02:12:40;15.09;74.16
68912;SHT31;55953;51.650;-0.522;2023-06-26T02:15:08;15.08;73.89
68912;SHT31;55953;51.650;-0.522;2023-06-26T02:17:36;15.05;73.90
68912;SHT31;55953;51.650;-0.522;2023-06-26T02:20:04;15.04;74.17
68912;SHT31;55953;51.650;-0.522;2023-06-26T02:22:33;15.04;74.10
68912;SHT31;55953;51.650;-0.522;2023-06-26T02:25:01;15.06;73.89
68912;SHT31;55953;51.650;-0.522;2023-06-26T02:27:29;15.04;74.03
68912;SHT31;55953;51.650;-0.522;2023-06-26T02:29:57;15.03;74.05
68912;SHT31;55953;51.650;-0.522;2023-06-26T02:32:24;15.01;74.08
68912;SHT31;55953;51.650;-0.522;2023-06-26T02:34:52;14.99;74.31
68912;SHT31;55953;51.650;-0.522;2023-06-26T02:37:21;14.96;74.22
68912;SHT31;55953;51.650;-0.522;2023-06-26T02:39:49;14.94;74.47
68912;SHT31;55953;51.650;-0.522;2023-06-26T02:42:17;14.90;74.34
68912;SHT31;55953;51.650;-0.522;2023-06-26T02:44:44;14.88;74.36
68912;SHT31;55953;51.650;-0.522;2023-06-26T02:47:12;14.87;74.46
68912;SHT31;55953;51.650;-0.522;2023-06-26T02:49:42;14.85;74.60
68912;SHT31;55953;51.650;-0.522;2023-06-26T02:52:10;14.81;74.54
68912;SHT31;55953;51.650;-0.522;2023-06-26T02:54:38;14.79;74.52
68912;SHT31;55953;51.650;-0.522;2023-06-26T02:57:06;14.78;74.58
68912;SHT31;55953;51.650;-0.522;2023-06-26T02:59:34;14.74;74.97
68912;SHT31;55953;51.650;-0.522;2023-06-26T03:02:02;14.69;74.92
68912;SHT31;55953;51.650;-0.522;2023-06-26T03:04:40;14.65;74.98
68912;SHT31;55953;51.650;-0.522;2023-06-26T03:07:09;14.60;75.37
68912;SHT31;55953;51.650;-0.522;2023-06-26T03:09:38;14.56;75.34
68912;SHT31;55953;51.650;-0.522;2023-06-26T03:12:06;14.55;75.31
68912;SHT31;55953;51.650;-0.522;2023-06-26T03:14:35;14.51;75.46
68912;SHT31;55953;51.650;-0.522;2023-06-26T03:17:03;14.52;75.50
68912;SHT31;55953;51.650;-0.522;2023-06-26T03:19:33;14.50;75.52
68912;SHT31;55953;51.650;-0.522;2023-06-26T03:22:27;14.48;75.74
68912;SHT31;55953;51.650;-0.522;2023-06-26T03:24:55;14.47;75.79
68912;SHT31;55953;51.650;-0.522;2023-06-26T03:27:23;14.45;75.88
68912;SHT31;55953;51.650;-0.522;2023-06-26T03:29:51;14.42;75.86
68912;SHT31;55953;51.650;-0.522;2023-06-26T03:32:21;14.41;75.99
68912;SHT31;55953;51.650;-0.522;2023-06-26T03:34:49;14.40;75.97
68912;SHT31;55953;51.650;-0.522;2023-06-26T03:37:17;14.39;75.98
68912;SHT31;55953;51.650;-0.522;2023-06-26T03:39:45;14.37;75.98
68912;SHT31;55953;51.650;-0.522;2023-06-26T03:42:13;14.35;76.20
68912;SHT31;55953;51.650;-0.522;2023-06-26T03:44:41;14.34;76.11
68912;SHT31;55953;51.650;-0.522;2023-06-26T03:47:09;14.31;76.24
68912;SHT31;55953;51.650;-0.522;2023-06-26T03:49:37;14.28;76.17
68912;SHT31;55953;51.650;-0.522;2023-06-26T03:52:05;14.28;76.37
68912;SHT31;55953;51.650;-0.522;2023-06-26T03:54:33;14.26;76.62
68912;SHT31;55953;51.650;-0.522;2023-06-26T03:57:01;14.23;76.57
68912;SHT31;55953;51.650;-0.522;2023-06-26T03:59:30;14.19;76.76
68912;SHT31;55953;51.650;-0.522;2023-06-26T04:01:58;14.17;76.94
68912;SHT31;55953;51.650;-0.522;2023-06-26T04:04:26;14.18;76.85
68912;SHT31;55953;51.650;-0.522;2023-06-26T04:06:54;14.19;76.80
68912;SHT31;55953;51.650;-0.522;2023-06-26T04:09:22;14.19;76.90
68912;SHT31;55953;51.650;-0.522;2023-06-26T04:11:50;14.18;77.00
68912;SHT31;55953;51.650;-0.522;2023-06-26T04:14:18;14.18;77.15
68912;SHT31;55953;51.650;-0.522;2023-06-26T04:16:46;14.18;77.20
68912;SHT31;55953;51.650;-0.522;2023-06-26T04:19:14;14.17;77.42
68912;SHT31;55953;51.650;-0.522;2023-06-26T04:21:42;14.19;77.56
68912;SHT31;55953;51.650;-0.522;2023-06-26T04:24:10;14.19;77.44
68912;SHT31;55953;51.650;-0.522;2023-06-26T04:26:41;14.19;77.45
68912;SHT31;55953;51.650;-0.522;2023-06-26T04:29:09;14.22;77.52
68912;SHT31;55953;51.650;-0.522;2023-06-26T04:31:37;14.24;77.66
68912;SHT31;55953;51.650;-0.522;2023-06-26T04:34:06;14.28;77.67
68912;SHT31;55953;51.650;-0.522;2023-06-26T04:36:34;14.28;77.69
68912;SHT31;55953;51.650;-0.522;2023-06-26T04:39:06;14.28;77.87
68912;SHT31;55953;51.650;-0.522;2023-06-26T04:41:34;14.33;77.90
68912;SHT31;55953;51.650;-0.522;2023-06-26T04:44:02;14.35;77.90
68912;SHT31;55953;51.650;-0.522;2023-06-26T04:46:30;14.38;77.93
68912;SHT31;55953;51.650;-0.522;2023-06-26T04:48:58;14.41;78.03
68912;SHT31;55953;51.650;-0.522;2023-06-26T04:51:26;14.43;78.22
68912;SHT31;55953;51.650;-0.522;2023-06-26T04:53:54;14.43;78.16
68912;SHT31;55953;51.650;-0.522;2023-06-26T04:56:22;14.46;78.26
68912;SHT31;55953;51.650;-0.522;2023-06-26T04:58:50;14.51;78.27
68912;SHT31;55953;51.650;-0.522;2023-06-26T05:01:18;14.52;78.20
68912;SHT31;55953;51.650;-0.522;2023-06-26T05:03:46;14.54;78.30
68912;SHT31;55953;51.650;-0.522;2023-06-26T05:06:15;14.56;78.43
68912;SHT31;55953;51.650;-0.522;2023-06-26T05:08:43;14.59;78.37
68912;SHT31;55953;51.650;-0.522;2023-06-26T05:11:11;14.62;78.28
68912;SHT31;55953;51.650;-0.522;2023-06-26T05:13:38;14.67;78.22
68912;SHT31;55953;51.650;-0.522;2023-06-26T05:16:08;14.73;78.13
68912;SHT31;55953;51.650;-0.522;2023-06-26T05:18:36;14.78;78.06
68912;SHT31;55953;51.650;-0.522;2023-06-26T05:21:04;14.78;78.00
68912;SHT31;55953;51.650;-0.522;2023-06-26T05:23:33;14.80;78.19
68912;SHT31;55953;51.650;-0.522;2023-06-26T05:26:03;14.83;77.94
68912;SHT31;55953;51.650;-0.522;2023-06-26T05:28:31;14.88;77.92
68912;SHT31;55953;51.650;-0.522;2023-06-26T05:30:59;14.93;77.75
68912;SHT31;55953;51.650;-0.522;2023-06-26T05:33:28;14.96;77.80
68912;SHT31;55953;51.650;-0.522;2023-06-26T05:35:56;15.00;77.75
68912;SHT31;55953;51.650;-0.522;2023-06-26T05:38:26;15.06;77.74
68912;SHT31;55953;51.650;-0.522;2023-06-26T05:40:55;15.12;77.59
68912;SHT31;55953;51.650;-0.522;2023-06-26T05:43:24;15.17;77.36
68912;SHT31;55953;51.650;-0.522;2023-06-26T05:45:56;15.21;77.34
68912;SHT31;55953;51.650;-0.522;2023-06-26T05:48:25;15.24;77.38
68912;SHT31;55953;51.650;-0.522;2023-06-26T05:50:53;15.31;77.26
68912;SHT31;55953;51.650;-0.522;2023-06-26T05:53:22;15.39;76.96
68912;SHT31;55953;51.650;-0.522;2023-06-26T05:55:50;15.44;76.69
68912;SHT31;55953;51.650;-0.522;2023-06-26T05:58:18;15.51;76.55
68912;SHT31;55953;51.650;-0.522;2023-06-26T06:00:48;15.54;76.52
68912;SHT31;55953;51.650;-0.522;2023-06-26T06:03:16;15.59;76.35
68912;SHT31;55953;51.650;-0.522;2023-06-26T06:05:47;15.61;76.36
68912;SHT31;55953;51.650;-0.522;2023-06-26T06:08:15;15.66;76.15
68912;SHT31;55953;51.650;-0.522;2023-06-26T06:10:42;15.71;75.95
68912;SHT31;55953;51.650;-0.522;2023-06-26T06:13:10;15.77;75.99
68912;SHT31;55953;51.650;-0.522;2023-06-26T06:15:38;15.88;75.86
68912;SHT31;55953;51.650;-0.522;2023-06-26T06:18:06;15.97;75.54
68912;SHT31;55953;51.650;-0.522;2023-06-26T06:20:34;16.04;75.29
68912;SHT31;55953;51.650;-0.522;2023-06-26T06:23:03;16.12;74.96
68912;SHT31;55953;51.650;-0.522;2023-06-26T06:25:31;16.20;74.41
68912;SHT31;55953;51.650;-0.522;2023-06-26T06:27:59;16.30;74.15
68912;SHT31;55953;51.650;-0.522;2023-06-26T06:30:27;16.37;73.72
68912;SHT31;55953;51.650;-0.522;2023-06-26T06:33:11;16.45;73.37
68912;SHT31;55953;51.650;-0.522;2023-06-26T06:35:39;16.53;72.98
68912;SHT31;55953;51.650;-0.522;2023-06-26T06:38:07;16.63;72.68
68912;SHT31;55953;51.650;-0.522;2023-06-26T06:40:35;16.71;72.32
68912;SHT31;55953;51.650;-0.522;2023-06-26T06:43:03;16.74;71.44
68912;SHT31;55953;51.650;-0.522;2023-06-26T06:45:31;16.77;71.37
68912;SHT31;55953;51.650;-0.522;2023-06-26T06:47:59;16.84;70.98
68912;SHT31;55953;51.650;-0.522;2023-06-26T06:50:27;16.90;70.59
68912;SHT31;55953;51.650;-0.522;2023-06-26T06:52:55;16.94;70.38
68912;SHT31;55953;51.650;-0.522;2023-06-26T06:55:23;17.10;70.21
68912;SHT31;55953;51.650;-0.522;2023-06-26T06:57:51;17.20;69.80
68912;SHT31;55953;51.650;-0.522;2023-06-26T07:00:19;17.23;69.44
68912;SHT31;55953;51.650;-0.522;2023-06-26T07:02:47;17.19;69.25
68912;SHT31;55953;51.650;-0.522;2023-06-26T07:05:15;17.18;69.49
68912;SHT31;55953;51.650;-0.522;2023-06-26T07:07:44;17.23;69.42
68912;SHT31;55953;51.650;-0.522;2023-06-26T07:10:12;17.21;69.11
68912;SHT31;55953;51.650;-0.522;2023-06-26T07:12:41;17.16;68.91
68912;SHT31;55953;51.650;-0.522;2023-06-26T07:15:09;17.20;69.74
68912;SHT31;55953;51.650;-0.522;2023-06-26T07:17:37;17.28;69.34
68912;SHT31;55953;51.650;-0.522;2023-06-26T07:20:07;17.31;68.74
68912;SHT31;55953;51.650;-0.522;2023-06-26T07:22:36;17.35;68.96
68912;SHT31;55953;51.650;-0.522;2023-06-26T07:25:05;17.39;68.54
68912;SHT31;55953;51.650;-0.522;2023-06-26T07:27:37;17.43;68.49
68912;SHT31;55953;51.650;-0.522;2023-06-26T07:30:06;17.43;68.03
68912;SHT31;55953;51.650;-0.522;2023-06-26T07:32:39;17.46;67.95
68912;SHT31;55953;51.650;-0.522;2023-06-26T07:35:10;17.61;67.63
68912;SHT31;55953;51.650;-0.522;2023-06-26T07:37:38;17.70;67.07
68912;SHT31;55953;51.650;-0.522;2023-06-26T07:40:06;17.81;67.18
68912;SHT31;55953;51.650;-0.522;2023-06-26T07:42:34;17.97;66.34
68912;SHT31;55953;51.650;-0.522;2023-06-26T07:45:02;18.06;65.01
68912;SHT31;55953;51.650;-0.522;2023-06-26T07:47:38;18.14;65.50
68912;SHT31;55953;51.650;-0.522;2023-06-26T07:50:07;18.22;63.83
68912;SHT31;55953;51.650;-0.522;2023-06-26T07:52:36;18.29;63.00
68912;SHT31;55953;51.650;-0.522;2023-06-26T07:55:04;18.34;62.09
68912;SHT31;55953;51.650;-0.522;2023-06-26T07:57:32;18.40;61.56
68912;SHT31;55953;51.650;-0.522;2023-06-26T08:00:00;18.40;61.28
68912;SHT31;55953;51.650;-0.522;2023-06-26T08:02:28;18.43;62.29
68912;SHT31;55953;51.650;-0.522;2023-06-26T08:04:56;18.50;61.61
68912;SHT31;55953;51.650;-0.522;2023-06-26T08:07:24;18.56;60.69
68912;SHT31;55953;51.650;-0.522;2023-06-26T08:09:52;18.67;59.51
68912;SHT31;55953;51.650;-0.522;2023-06-26T08:12:20;18.86;58.50
68912;SHT31;55953;51.650;-0.522;2023-06-26T08:14:48;19.06;56.63
68912;SHT31;55953;51.650;-0.522;2023-06-26T08:17:16;19.19;55.41
68912;SHT31;55953;51.650;-0.522;2023-06-26T08:19:44;19.31;54.71
68912;SHT31;55953;51.650;-0.522;2023-06-26T08:22:11;19.38;53.83
68912;SHT31;55953;51.650;-0.522;2023-06-26T08:24:39;19.45;55.16
68912;SHT31;55953;51.650;-0.522;2023-06-26T08:27:07;19.61;54.08
68912;SHT31;55953;51.650;-0.522;2023-06-26T08:29:35;19.65;52.82
68912;SHT31;55953;51.650;-0.522;2023-06-26T08:32:03;19.70;53.54
68912;SHT31;55953;51.650;-0.522;2023-06-26T08:34:31;19.78;53.08
68912;SHT31;55953;51.650;-0.522;2023-06-26T08:36:59;19.88;52.64
68912;SHT31;55953;51.650;-0.522;2023-06-26T08:39:27;19.96;52.56
68912;SHT31;55953;51.650;-0.522;2023-06-26T08:41:55;19.91;52.62
68912;SHT31;55953;51.650;-0.522;2023-06-26T08:44:23;19.98;53.10
68912;SHT31;55953;51.650;-0.522;2023-06-26T08:46:52;20.06;52.91
68912;SHT31;55953;51.650;-0.522;2023-06-26T08:49:20;20.11;52.69
68912;SHT31;55953;51.650;-0.522;2023-06-26T08:52:43;20.08;51.29
68912;SHT31;55953;51.650;-0.522;2023-06-26T08:54:58;20.13;51.45
68912;SHT31;55953;51.650;-0.522;2023-06-26T08:57:30;20.20;51.70
68912;SHT31;55953;51.650;-0.522;2023-06-26T08:59:59;20.32;51.69
68912;SHT31;55953;51.650;-0.522;2023-06-26T09:02:28;20.40;51.65
68912;SHT31;55953;51.650;-0.522;2023-06-26T09:04:56;20.34;51.12
68912;SHT31;55953;51.650;-0.522;2023-06-26T09:07:25;20.23;51.05
68912;SHT31;55953;51.650;-0.522;2023-06-26T09:09:52;20.12;50.95
68912;SHT31;55953;51.650;-0.522;2023-06-26T09:12:20;20.20;51.26
68912;SHT31;55953;51.650;-0.522;2023-06-26T09:14:48;20.46;50.72
68912;SHT31;55953;51.650;-0.522;2023-06-26T09:17:17;20.47;49.65
68912;SHT31;55953;51.650;-0.522;2023-06-26T09:19:45;20.41;49.34
68912;SHT31;55953;51.650;-0.522;2023-06-26T09:22:14;20.67;49.50
68912;SHT31;55953;51.650;-0.522;2023-06-26T09:24:43;20.97;49.25
68912;SHT31;55953;51.650;-0.522;2023-06-26T09:27:11;21.22;48.81
68912;SHT31;55953;51.650;-0.522;2023-06-26T09:29:40;21.21;47.72
68912;SHT31;55953;51.650;-0.522;2023-06-26T09:32:08;21.10;47.47
68912;SHT31;55953;51.650;-0.522;2023-06-26T09:34:40;21.12;48.19
68912;SHT31;55953;51.650;-0.522;2023-06-26T09:37:11;21.15;47.52
68912;SHT31;55953;51.650;-0.522;2023-06-26T09:39:41;21.19;47.71
68912;SHT31;55953;51.650;-0.522;2023-06-26T09:42:09;21.20;47.71
68912;SHT31;55953;51.650;-0.522;2023-06-26T09:44:37;21.23;48.58
68912;SHT31;55953;51.650;-0.522;2023-06-26T09:47:12;21.33;48.97
68912;SHT31;55953;51.650;-0.522;2023-06-26T09:49:45;21.52;48.74
68912;SHT31;55953;51.650;-0.522;2023-06-26T09:52:17;21.49;48.07
68912;SHT31;55953;51.650;-0.522;2023-06-26T09:54:46;21.51;48.18
68912;SHT31;55953;51.650;-0.522;2023-06-26T09:57:18;21.68;47.66
68912;SHT31;55953;51.650;-0.522;2023-06-26T09:59:46;21.70;47.73
68912;SHT31;55953;51.650;-0.522;2023-06-26T10:02:14;21.70;47.99
68912;SHT31;55953;51.650;-0.522;2023-06-26T10:04:43;21.71;47.84
68912;SHT31;55953;51.650;-0.522;2023-06-26T10:07:11;21.58;47.81
68912;SHT31;55953;51.650;-0.522;2023-06-26T10:09:41;21.48;47.75
68912;SHT31;55953;51.650;-0.522;2023-06-26T10:12:19;21.52;48.21
68912;SHT31;55953;51.650;-0.522;2023-06-26T10:14:57;21.73;48.73
68912;SHT31;55953;51.650;-0.522;2023-06-26T10:17:30;21.95;47.02
68912;SHT31;55953;51.650;-0.522;2023-06-26T10:20:03;22.17;47.21
68912;SHT31;55953;51.650;-0.522;2023-06-26T10:22:36;22.40;46.54
68912;SHT31;55953;51.650;-0.522;2023-06-26T10:25:10;22.66;46.32
68912;SHT31;55953;51.650;-0.522;2023-06-26T10:27:44;22.58;45.38
68912;SHT31;55953;51.650;-0.522;2023-06-26T10:30:23;22.49;45.58
68912;SHT31;55953;51.650;-0.522;2023-06-26T10:32:55;22.43;45.37
68912;SHT31;55953;51.650;-0.522;2023-06-26T10:35:25;22.44;45.53
68912;SHT31;55953;51.650;-0.522;2023-06-26T10:37:59;22.39;45.29
68912;SHT31;55953;51.650;-0.522;2023-06-26T10:40:44;22.41;46.17
68912;SHT31;55953;51.650;-0.522;2023-06-26T10:43:16;22.50;45.46
68912;SHT31;55953;51.650;-0.522;2023-06-26T10:45:46;22.45;44.64
68912;SHT31;55953;51.650;-0.522;2023-06-26T10:48:20;22.25;45.04
68912;SHT31;55953;51.650;-0.522;2023-06-26T10:50:50;22.20;45.67
68912;SHT31;55953;51.650;-0.522;2023-06-26T10:55:50;22.14;46.51
68912;SHT31;55953;51.650;-0.522;2023-06-26T10:58:34;22.28;46.78
68912;SHT31;55953;51.650;-0.522;2023-06-26T11:03:39;22.46;44.92
68912;SHT31;55953;51.650;-0.522;2023-06-26T11:06:12;22.46;44.22
68912;SHT31;55953;51.650;-0.522;2023-06-26T11:08:53;22.67;44.61
68912;SHT31;55953;51.650;-0.522;2023-06-26T11:14:22;22.85;43.34
68912;SHT31;55953;51.650;-0.522;2023-06-26T11:16:51;22.91;43.03
68912;SHT31;55953;51.650;-0.522;2023-06-26T11:19:19;22.90;42.34
68912;SHT31;55953;51.650;-0.522;2023-06-26T11:21:48;23.05;42.86
68912;SHT31;55953;51.650;-0.522;2023-06-26T11:24:19;23.23;42.98
68912;SHT31;55953;51.650;-0.522;2023-06-26T11:26:48;23.25;42.09
68912;SHT31;55953;51.650;-0.522;2023-06-26T11:29:16;23.38;42.17
68912;SHT31;55953;51.650;-0.522;2023-06-26T11:31:44;23.57;42.12
68912;SHT31;55953;51.650;-0.522;2023-06-26T11:34:12;23.59;39.63
68912;SHT31;55953;51.650;-0.522;2023-06-26T11:36:42;23.51;40.62
68912;SHT31;55953;51.650;-0.522;2023-06-26T11:39:13;23.64;40.74
68912;SHT31;55953;51.650;-0.522;2023-06-26T11:41:41;23.67;40.05
68912;SHT31;55953;51.650;-0.522;2023-06-26T11:44:09;23.53;39.42
68912;SHT31;55953;51.650;-0.522;2023-06-26T11:46:38;23.21;40.32
68912;SHT31;55953;51.650;-0.522;2023-06-26T11:49:06;23.17;40.82
68912;SHT31;55953;51.650;-0.522;2023-06-26T11:51:35;23.13;40.74
68912;SHT31;55953;51.650;-0.522;2023-06-26T11:54:04;23.29;41.38
68912;SHT31;55953;51.650;-0.522;2023-06-26T11:56:32;23.38;40.08
68912;SHT31;55953;51.650;-0.522;2023-06-26T11:59:02;23.37;39.67
68912;SHT31;55953;51.650;-0.522;2023-06-26T12:04:09;23.45;40.28
68912;SHT31;55953;51.650;-0.522;2023-06-26T12:06:41;23.61;40.09
68912;SHT31;55953;51.650;-0.522;2023-06-26T12:09:16;23.71;40.37
68912;SHT31;55953;51.650;-0.522;2023-06-26T12:11:47;23.67;39.91
68912;SHT31;55953;51.650;-0.522;2023-06-26T12:14:22;23.72;40.25
68912;SHT31;55953;51.650;-0.522;2023-06-26T12:16:53;23.81;41.29
68912;SHT31;55953;51.650;-0.522;2023-06-26T12:19:24;23.96;41.13
68912;SHT31;55953;51.650;-0.522;2023-06-26T12:21:56;23.96;40.41
68912;SHT31;55953;51.650;-0.522;2023-06-26T12:24:24;23.99;40.98
68912;SHT31;55953;51.650;-0.522;2023-06-26T12:26:53;24.12;41.27
68912;SHT31;55953;51.650;-0.522;2023-06-26T12:29:34;23.97;39.75
68912;SHT31;55953;51.650;-0.522;2023-06-26T12:32:02;23.65;40.42
68912;SHT31;55953;51.650;-0.522;2023-06-26T12:34:34;23.51;40.52
68912;SHT31;55953;51.650;-0.522;2023-06-26T12:37:05;23.31;40.57
68912;SHT31;55953;51.650;-0.522;2023-06-26T12:39:55;23.13;40.26
68912;SHT31;55953;51.650;-0.522;2023-06-26T12:42:26;23.08;41.30
68912;SHT31;55953;51.650;-0.522;2023-06-26T12:44:55;23.25;41.14
68912;SHT31;55953;51.650;-0.522;2023-06-26T12:47:27;23.41;40.48
68912;SHT31;55953;51.650;-0.522;2023-06-26T12:49:58;23.40;40.04
68912;SHT31;55953;51.650;-0.522;2023-06-26T12:52:26;23.35;39.93
68912;SHT31;55953;51.650;-0.522;2023-06-26T12:54:54;23.27;39.77
68912;SHT31;55953;51.650;-0.522;2023-06-26T12:57:24;23.20;39.48
68912;SHT31;55953;51.650;-0.522;2023-06-26T12:59:53;23.16;39.42
68912;SHT31;55953;51.650;-0.522;2023-06-26T13:02:21;23.06;37.85
68912;SHT31;55953;51.650;-0.522;2023-06-26T13:04:49;22.82;37.40
68912;SHT31;55953;51.650;-0.522;2023-06-26T13:07:17;22.68;38.63
68912;SHT31;55953;51.650;-0.522;2023-06-26T13:09:45;22.74;39.47
68912;SHT31;55953;51.650;-0.522;2023-06-26T13:12:15;22.81;39.87
68912;SHT31;55953;51.650;-0.522;2023-06-26T13:14:43;22.84;39.98
68912;SHT31;55953;51.650;-0.522;2023-06-26T13:17:11;22.95;40.96
68912;SHT31;55953;51.650;-0.522;2023-06-26T13:19:40;23.00;39.94
68912;SHT31;55953;51.650;-0.522;2023-06-26T13:22:08;23.02;40.37
68912;SHT31;55953;51.650;-0.522;2023-06-26T13:24:36;23.01;40.19
68912;SHT31;55953;51.650;-0.522;2023-06-26T13:27:04;23.05;40.07
68912;SHT31;55953;51.650;-0.522;2023-06-26T13:29:32;23.23;40.81
68912;SHT31;55953;51.650;-0.522;2023-06-26T13:32:00;23.30;39.74
68912;SHT31;55953;51.650;-0.522;2023-06-26T13:34:28;23.12;39.12
68912;SHT31;55953;51.650;-0.522;2023-06-26T13:36:56;22.97;39.74
68912;SHT31;55953;51.650;-0.522;2023-06-26T13:39:24;22.84;40.26
68912;SHT31;55953;51.650;-0.522;2023-06-26T13:41:52;22.62;40.36
68912;SHT31;55953;51.650;-0.522;2023-06-26T13:44:20;22.48;40.53
68912;SHT31;55953;51.650;-0.522;2023-06-26T13:47:02;22.41;40.66
68912;SHT31;55953;51.650;-0.522;2023-06-26T13:49:30;22.46;40.86
68912;SHT31;55953;51.650;-0.522;2023-06-26T13:51:58;22.72;40.71
68912;SHT31;55953;51.650;-0.522;2023-06-26T13:54:26;22.98;40.71
68912;SHT31;55953;51.650;-0.522;2023-06-26T13:56:54;23.18;39.90
68912;SHT31;55953;51.650;-0.522;2023-06-26T13:59:25;23.24;40.03
68912;SHT31;55953;51.650;-0.522;2023-06-26T14:01:53;23.17;39.34
68912;SHT31;55953;51.650;-0.522;2023-06-26T14:04:21;23.06;39.73
68912;SHT31;55953;51.650;-0.522;2023-06-26T14:06:50;23.00;39.48
68912;SHT31;55953;51.650;-0.522;2023-06-26T14:09:18;22.91;39.88
68912;SHT31;55953;51.650;-0.522;2023-06-26T14:11:46;22.83;40.42
68912;SHT31;55953;51.650;-0.522;2023-06-26T14:14:15;22.81;40.78
68912;SHT31;55953;51.650;-0.522;2023-06-26T14:16:43;22.88;40.38
68912;SHT31;55953;51.650;-0.522;2023-06-26T14:19:12;22.94;40.52
68912;SHT31;55953;51.650;-0.522;2023-06-26T14:21:41;23.10;40.32
68912;SHT31;55953;51.650;-0.522;2023-06-26T14:24:09;23.10;39.68
68912;SHT31;55953;51.650;-0.522;2023-06-26T14:26:37;23.09;40.07
68912;SHT31;55953;51.650;-0.522;2023-06-26T14:29:06;23.14;40.26
68912;SHT31;55953;51.650;-0.522;2023-06-26T14:31:34;23.13;40.21
68912;SHT31;55953;51.650;-0.522;2023-06-26T14:34:02;23.14;39.58
68912;SHT31;55953;51.650;-0.522;2023-06-26T14:36:30;23.12;39.45
68912;SHT31;55953;51.650;-0.522;2023-06-26T14:39:01;23.11;39.40
68912;SHT31;55953;51.650;-0.522;2023-06-26T14:41:29;23.26;39.15
68912;SHT31;55953;51.650;-0.522;2023-06-26T14:43:58;23.32;39.33
68912;SHT31;55953;51.650;-0.522;2023-06-26T14:46:26;23.46;39.29
68912;SHT31;55953;51.650;-0.522;2023-06-26T14:48:55;23.43;38.47
68912;SHT31;55953;51.650;-0.522;2023-06-26T14:51:23;23.38;38.35
68912;SHT31;55953;51.650;-0.522;2023-06-26T14:53:51;23.34;38.22
68912;SHT31;55953;51.650;-0.522;2023-06-26T14:56:19;23.39;39.38
68912;SHT31;55953;51.650;-0.522;2023-06-26T14:58:47;23.60;39.46
68912;SHT31;55953;51.650;-0.522;2023-06-26T15:01:15;23.66;38.60
68912;SHT31;55953;51.650;-0.522;2023-06-26T15:03:43;23.59;38.82
68912;SHT31;55953;51.650;-0.522;2023-06-26T15:06:11;23.65;38.91
68912;SHT31;55953;51.650;-0.522;2023-06-26T15:08:39;23.64;38.88
68912;SHT31;55953;51.650;-0.522;2023-06-26T15:11:07;23.54;39.18
68912;SHT31;55953;51.650;-0.522;2023-06-26T15:13:35;23.39;39.18
68912;SHT31;55953;51.650;-0.522;2023-06-26T15:16:03;23.13;39.19
68912;SHT31;55953;51.650;-0.522;2023-06-26T15:18:31;22.99;39.31
68912;SHT31;55953;51.650;-0.522;2023-06-26T15:20:59;22.99;39.79
68912;SHT31;55953;51.650;-0.522;2023-06-26T15:23:30;23.01;39.92
68912;SHT31;55953;51.650;-0.522;2023-06-26T15:25:58;22.96;40.03
68912;SHT31;55953;51.650;-0.522;2023-06-26T15:28:26;22.84;40.14
68912;SHT31;55953;51.650;-0.522;2023-06-26T15:30:54;22.72;40.48
68912;SHT31;55953;51.650;-0.522;2023-06-26T15:33:21;22.69;41.01
68912;SHT31;55953;51.650;-0.522;2023-06-26T15:35:49;22.84;41.67
68912;SHT31;55953;51.650;-0.522;2023-06-26T15:38:17;22.97;40.63
68912;SHT31;55953;51.650;-0.522;2023-06-26T15:40:45;22.99;40.99
68912;SHT31;55953;51.650;-0.522;2023-06-26T15:43:13;22.95;40.61
68912;SHT31;55953;51.650;-0.522;2023-06-26T15:45:41;23.03;41.77
68912;SHT31;55953;51.650;-0.522;2023-06-26T15:48:09;23.15;41.30
68912;SHT31;55953;51.650;-0.522;2023-06-26T15:50:37;22.93;41.28
68912;SHT31;55953;51.650;-0.522;2023-06-26T15:53:05;22.73;41.59